createdAt,value
2018-05-11T00:00:16.408Z,7.57
2018-05-11T00:02:43.053Z,7.00
2018-05-11T00:05:09.689Z,7.33
2018-05-11T00:07:36.368Z,7.23
2018-05-11T00:10:03.021Z,6.80
2018-05-11T00:12:29.684Z,7.27
2018-05-11T00:14:56.299Z,6.63
2018-05-11T00:17:22.926Z,7.63
2018-05-11T00:19:49.631Z,7.23
2018-05-11T00:22:17.232Z,7.67
2018-05-11T00:24:43.863Z,7.07
2018-05-11T00:27:10.499Z,8.00
2018-05-11T00:29:37.145Z,6.60
2018-05-11T00:32:03.755Z,7.17
2018-05-11T00:34:31.169Z,7.10
2018-05-11T00:36:58.685Z,7.73
2018-05-11T00:39:25.488Z,6.77
2018-05-11T00:41:52.088Z,6.57
2018-05-11T00:44:18.763Z,6.87
2018-05-11T00:46:45.392Z,7.23
2018-05-11T00:49:12.055Z,6.53
2018-05-11T00:51:39.437Z,6.47
2018-05-11T00:54:06.069Z,6.00
2018-05-11T00:56:33.538Z,6.40
2018-05-11T00:59:00.197Z,6.23
2018-05-11T01:01:27.752Z,6.30
2018-05-11T01:03:54.456Z,7.47
2018-05-11T01:06:21.854Z,6.33
2018-05-11T01:08:48.609Z,6.77
2018-05-11T01:11:15.234Z,7.10
2018-05-11T01:13:41.963Z,7.70
2018-05-11T01:16:08.577Z,7.07
2018-05-11T01:18:35.368Z,6.87
2018-05-11T01:21:02.057Z,7.03
2018-05-11T01:23:29.561Z,6.83
2018-05-11T01:25:56.202Z,7.43
2018-05-11T01:28:22.858Z,7.03
2018-05-11T01:30:49.741Z,6.30
2018-05-11T01:33:16.385Z,7.23
2018-05-11T01:35:43.057Z,7.00
2018-05-11T01:38:09.691Z,7.27
2018-05-11T01:40:37.210Z,6.53
2018-05-11T01:43:04.743Z,6.60
2018-05-11T01:45:31.365Z,7.57
2018-05-11T01:47:58.191Z,7.03
2018-05-11T01:50:24.836Z,7.33
2018-05-11T01:52:51.600Z,7.73
2018-05-11T01:55:18.257Z,6.93
2018-05-11T01:57:45.605Z,7.50
2018-05-11T02:00:12.225Z,7.30
2018-05-11T02:02:38.948Z,7.00
2018-05-11T02:05:05.596Z,7.20
2018-05-11T02:07:32.377Z,7.50
2018-05-11T02:09:59.956Z,7.60
2018-05-11T02:12:26.638Z,7.37
2018-05-11T02:14:54.044Z,7.40
2018-05-11T02:17:21.447Z,7.23
2018-05-11T02:19:48.102Z,7.67
2018-05-11T02:22:14.767Z,7.50
2018-05-11T02:24:42.184Z,7.90
2018-05-11T02:27:08.812Z,7.60
2018-05-11T02:29:35.531Z,7.73
2018-05-11T02:32:02.274Z,7.17
2018-05-11T02:34:28.904Z,7.10
2018-05-11T02:36:55.574Z,7.63
2018-05-11T02:39:22.347Z,7.60
2018-05-11T02:41:49.639Z,7.20
2018-05-11T02:44:16.338Z,7.27
2018-05-11T02:46:42.980Z,7.60
2018-05-11T02:49:09.841Z,7.63
2018-05-11T02:51:37.273Z,7.33
2018-05-11T02:54:03.895Z,7.07
2018-05-11T02:56:30.630Z,7.87
2018-05-11T02:58:57.274Z,6.80
2018-05-11T03:01:24.064Z,7.23
2018-05-11T03:03:51.424Z,7.27
2018-05-11T03:06:18.399Z,7.20
2018-05-11T03:08:45.035Z,7.63
2018-05-11T03:11:11.985Z,7.17
2018-05-11T03:13:38.647Z,7.77
2018-05-11T03:16:05.267Z,7.70
2018-05-11T03:18:32.116Z,7.37
2018-05-11T03:20:58.865Z,7.80
2018-05-11T03:23:25.672Z,7.60
2018-05-11T03:25:52.451Z,6.83
2018-05-11T03:28:19.173Z,7.10
2018-05-11T03:30:45.877Z,7.77
2018-05-11T03:33:12.535Z,7.43
2018-05-11T03:35:39.229Z,7.80
2018-05-11T03:38:05.900Z,7.97
2018-05-11T03:40:32.538Z,6.80
2018-05-11T03:42:59.170Z,7.43
2018-05-11T03:45:25.938Z,7.23
2018-05-11T03:47:52.588Z,6.90
2018-05-11T03:50:19.215Z,6.50
2018-05-11T03:52:45.869Z,6.47
2018-05-11T03:55:12.491Z,6.77
2018-05-11T03:57:39.153Z,6.80
2018-05-11T04:00:05.875Z,7.50
2018-05-11T04:02:51.767Z,7.47
2018-05-11T04:05:36.853Z,6.90
2018-05-11T04:08:22.220Z,7.13
2018-05-11T04:10:49.205Z,8.17
2018-05-11T04:13:15.805Z,8.20
2018-05-11T04:15:43.160Z,7.60
2018-05-11T04:18:10.603Z,8.20
2018-05-11T04:20:38.032Z,7.83
2018-05-11T04:23:04.553Z,7.83
2018-05-11T04:25:31.275Z,7.50
2018-05-11T04:27:57.930Z,7.47
2018-05-11T04:30:24.602Z,8.67
2018-05-11T04:32:51.218Z,8.40
2018-05-11T04:35:17.933Z,8.63
2018-05-11T04:37:44.718Z,8.30
2018-05-11T04:40:12.090Z,8.73
2018-05-11T04:42:38.709Z,8.90
2018-05-11T04:45:06.068Z,8.17
2018-05-11T04:47:33.414Z,7.70
2018-05-11T04:50:00.808Z,9.03
2018-05-11T04:52:27.526Z,8.23
2018-05-11T04:54:54.393Z,8.80
2018-05-11T04:57:21.006Z,8.63
2018-05-11T04:59:48.376Z,8.43
2018-05-11T05:02:15.213Z,9.00
2018-05-11T05:04:41.930Z,9.03
2018-05-11T05:07:09.279Z,9.40
2018-05-11T05:09:36.602Z,9.43
2018-05-11T05:12:03.249Z,9.10
2018-05-11T05:14:29.862Z,8.77
2018-05-11T05:16:56.598Z,10.03
2018-05-11T05:19:23.367Z,9.63
2018-05-11T05:21:49.966Z,10.70
2018-05-11T05:24:16.658Z,10.17
2018-05-11T05:26:44.574Z,9.07
2018-05-11T05:29:11.159Z,9.03
2018-05-11T05:31:37.867Z,9.53
2018-05-11T05:34:04.442Z,9.30
2018-05-11T05:36:31.138Z,10.00
2018-05-11T05:38:57.827Z,8.83
2018-05-11T05:41:24.473Z,10.17
2018-05-11T05:43:51.201Z,9.90
2018-05-11T05:46:18.587Z,10.03
2018-05-11T05:48:45.292Z,9.30
2018-05-11T05:51:11.932Z,9.33
2018-05-11T05:53:38.756Z,9.90
2018-05-11T05:56:05.432Z,8.93
2018-05-11T05:58:32.036Z,9.17
2018-05-11T06:00:58.767Z,9.27
2018-05-11T06:03:25.458Z,9.77
2018-05-11T06:05:52.058Z,10.10
2018-05-11T06:08:18.808Z,11.43
2018-05-11T06:10:45.427Z,10.37
2018-05-11T06:13:12.513Z,12.17
2018-05-11T06:15:39.468Z,12.00
2018-05-11T06:18:06.004Z,12.30
2018-05-11T06:20:32.725Z,11.80
2018-05-11T06:22:59.438Z,12.50
2018-05-11T06:25:26.032Z,12.90
2018-05-11T06:27:52.764Z,14.53
2018-05-11T06:30:19.316Z,15.60
2018-05-11T06:32:46.031Z,17.60
2018-05-11T06:35:12.885Z,15.10
2018-05-11T06:37:39.588Z,16.80
2018-05-11T06:40:06.909Z,17.07
2018-05-11T06:42:33.645Z,17.00
2018-05-11T06:45:00.332Z,15.73
2018-05-11T06:47:26.931Z,14.47
2018-05-11T06:49:53.609Z,13.03
2018-05-11T06:52:20.366Z,12.80
2018-05-11T06:54:46.974Z,13.27
2018-05-11T06:57:14.295Z,13.57
2018-05-11T06:59:41.048Z,13.10
2018-05-11T07:02:07.783Z,12.57
2018-05-11T07:04:34.449Z,13.47
2018-05-11T07:07:01.794Z,13.00
2018-05-11T07:09:29.175Z,13.67
2018-05-11T07:11:55.957Z,12.53
2018-05-11T07:14:22.616Z,12.50
2018-05-11T07:16:49.330Z,10.40
2018-05-11T07:19:15.944Z,11.90
2018-05-11T07:21:42.604Z,13.10
2018-05-11T07:24:09.185Z,13.63
2018-05-11T07:26:36.715Z,13.83
2018-05-11T07:29:03.468Z,13.93
2018-05-11T07:31:30.729Z,13.63
2018-05-11T07:33:58.110Z,13.10
2018-05-11T07:36:24.728Z,14.10
2018-05-11T07:38:52.039Z,12.37
2018-05-11T07:41:18.778Z,11.47
2018-05-11T07:43:46.103Z,10.73
2018-05-11T07:46:12.854Z,11.93
2018-05-11T07:48:39.471Z,12.40
2018-05-11T07:51:06.324Z,12.30
2018-05-11T07:53:32.979Z,12.23
2018-05-11T07:56:00.340Z,9.83
2018-05-11T07:58:27.010Z,12.40
2018-05-11T08:00:53.710Z,12.00
2018-05-11T08:03:20.364Z,10.60
2018-05-11T08:05:47.045Z,11.90
2018-05-11T08:08:14.481Z,11.33
2018-05-11T08:10:41.329Z,12.07
2018-05-11T08:13:07.966Z,11.00
2018-05-11T08:15:34.606Z,10.37
2018-05-11T08:18:01.305Z,10.80
2018-05-11T08:20:27.954Z,11.33
2018-05-11T08:22:54.670Z,9.47
2018-05-11T08:25:21.260Z,11.47
2018-05-11T08:27:48.183Z,11.67
2018-05-11T08:30:14.827Z,11.30
2018-05-11T08:32:41.638Z,11.93
2018-05-11T08:35:08.400Z,11.00
2018-05-11T08:37:36.131Z,10.73
2018-05-11T08:40:02.787Z,8.97
2018-05-11T08:42:30.671Z,10.40
2018-05-11T08:44:57.301Z,10.67
2018-05-11T08:47:23.931Z,9.80
2018-05-11T08:49:50.659Z,10.03
2018-05-11T08:52:17.345Z,9.70
2018-05-11T08:54:44.778Z,10.57
2018-05-11T08:57:12.262Z,11.70
2018-05-11T08:59:38.818Z,10.50
2018-05-11T09:02:05.430Z,11.43
2018-05-11T09:04:32.069Z,10.57
2018-05-11T09:06:58.770Z,11.10
2018-05-11T09:09:25.391Z,11.30
2018-05-11T09:11:52.006Z,12.33
2018-05-11T09:14:18.619Z,9.20
2018-05-11T09:16:45.319Z,10.30
2018-05-11T09:19:11.993Z,12.83
2018-05-11T09:21:38.581Z,11.83
2018-05-11T09:24:05.339Z,12.43
2018-05-11T09:26:32.076Z,12.53
2018-05-11T09:28:58.758Z,11.23
2018-05-11T09:31:25.394Z,11.10
2018-05-11T09:33:53.265Z,12.03
2018-05-11T09:36:19.869Z,12.13
2018-05-11T09:38:46.527Z,12.27
2018-05-11T09:41:13.127Z,12.37
2018-05-11T09:43:39.758Z,11.43
2018-05-11T09:46:07.211Z,12.57
2018-05-11T09:48:33.906Z,10.87
2018-05-11T09:51:00.550Z,11.27
2018-05-11T09:53:27.258Z,11.97
2018-05-11T09:55:53.938Z,9.77
2018-05-11T09:58:21.383Z,12.43
2018-05-11T10:00:48.047Z,12.83
2018-05-11T10:03:15.463Z,13.70
2018-05-11T10:05:42.209Z,11.87
2018-05-11T10:08:09.666Z,11.37
2018-05-11T10:10:36.338Z,13.20
2018-05-11T10:13:02.931Z,13.70
2018-05-11T10:15:29.666Z,13.37
2018-05-11T10:17:56.264Z,14.17
2018-05-11T10:20:23.650Z,11.27
2018-05-11T10:22:50.279Z,12.10
2018-05-11T10:25:16.889Z,11.50
2018-05-11T10:27:43.579Z,11.40
2018-05-11T10:30:10.274Z,11.63
2018-05-11T10:32:36.904Z,12.43
2018-05-11T10:35:03.623Z,12.90
2018-05-11T10:37:31.132Z,13.30
2018-05-11T10:39:57.841Z,13.13
2018-05-11T10:42:26.077Z,12.63
2018-05-11T10:44:52.787Z,12.83
2018-05-11T10:47:19.394Z,12.37
2018-05-11T10:49:46.746Z,12.87
2018-05-11T10:52:13.575Z,12.20
2018-05-11T10:54:40.218Z,13.20
2018-05-11T10:57:06.867Z,11.50
2018-05-11T10:59:33.538Z,12.93
2018-05-11T11:02:00.279Z,12.67
2018-05-11T11:04:27.065Z,13.30
2018-05-11T11:06:54.596Z,12.73
2018-05-11T11:09:21.249Z,13.20
2018-05-11T11:11:48.605Z,13.27
2018-05-11T11:14:16.008Z,12.33
2018-05-11T11:16:42.621Z,14.50
2018-05-11T11:19:09.303Z,13.70
2018-05-11T11:21:35.991Z,12.70
2018-05-11T11:24:02.770Z,11.53
2018-05-11T11:26:30.267Z,11.60
2018-05-11T11:28:56.884Z,11.13
2018-05-11T11:31:24.376Z,11.60
2018-05-11T11:33:51.881Z,11.93
2018-05-11T11:36:18.599Z,11.97
2018-05-11T11:38:45.182Z,10.43
2018-05-11T11:41:11.819Z,11.60
2018-05-11T11:43:38.640Z,10.67
2018-05-11T11:46:05.278Z,11.40
2018-05-11T11:48:31.895Z,9.93
2018-05-11T11:50:58.502Z,10.83
2018-05-11T11:53:25.988Z,11.40
2018-05-11T11:55:52.769Z,11.23
2018-05-11T11:58:19.545Z,9.63
2018-05-11T12:00:47.004Z,9.20
2018-05-11T12:03:13.918Z,10.37
2018-05-11T12:05:40.634Z,11.83
2018-05-11T12:08:07.248Z,9.77
2018-05-11T12:10:34.058Z,10.83
2018-05-11T12:13:01.411Z,10.93
2018-05-11T12:15:28.845Z,10.87
2018-05-11T12:17:55.410Z,10.60
2018-05-11T12:20:22.783Z,10.37
2018-05-11T12:22:49.428Z,9.97
2018-05-11T12:25:16.918Z,10.03
2018-05-11T12:27:43.522Z,10.00
2018-05-11T12:30:10.129Z,9.43
2018-05-11T12:32:37.521Z,8.70
2018-05-11T12:35:04.111Z,6.63
2018-05-11T12:37:31.446Z,7.47
2018-05-11T12:39:58.059Z,7.97
2018-05-11T12:42:24.911Z,8.53
2018-05-11T12:44:51.614Z,8.80
2018-05-11T12:47:18.465Z,8.57
2018-05-11T12:49:45.132Z,8.63
2018-05-11T12:52:11.791Z,7.47
2018-05-11T12:54:38.456Z,7.10
2018-05-11T12:57:05.132Z,8.77
2018-05-11T12:59:31.815Z,9.27
2018-05-11T13:01:58.593Z,8.67
2018-05-11T13:04:25.257Z,7.97
2018-05-11T13:06:51.887Z,7.80
2018-05-11T13:09:18.579Z,7.27
2018-05-11T13:11:45.922Z,7.20
2018-05-11T13:14:12.511Z,7.07
2018-05-11T13:16:39.104Z,8.80
2018-05-11T13:19:05.746Z,7.83
2018-05-11T13:21:33.110Z,6.87
2018-05-11T13:24:00.466Z,7.80
2018-05-11T13:26:27.074Z,8.20
2018-05-11T13:28:54.541Z,7.20
2018-05-11T13:31:21.304Z,8.03
2018-05-11T13:33:47.896Z,6.63
2018-05-11T13:36:14.482Z,7.10
2018-05-11T13:38:41.214Z,7.40
2018-05-11T13:41:08.535Z,7.07
2018-05-11T13:43:35.140Z,6.87
2018-05-11T13:46:01.799Z,5.87
2018-05-11T13:48:28.524Z,6.77
2018-05-11T13:50:55.083Z,6.57
2018-05-11T13:53:21.798Z,7.03
2018-05-11T13:55:48.608Z,7.07
2018-05-11T13:58:15.383Z,6.80
2018-05-11T14:00:41.985Z,7.73
2018-05-11T14:03:08.685Z,8.10
2018-05-11T14:05:35.302Z,7.00
2018-05-11T14:08:01.994Z,6.40
2018-05-11T14:10:28.632Z,5.97
2018-05-11T14:12:55.245Z,6.37
2018-05-11T14:15:21.886Z,5.87
2018-05-11T14:17:49.336Z,5.50
2018-05-11T14:20:16.813Z,6.63
2018-05-11T14:22:44.412Z,5.47
2018-05-11T14:25:11.606Z,5.63
2018-05-11T14:27:38.294Z,6.20
2018-05-11T14:30:04.918Z,5.73
2018-05-11T14:32:31.667Z,5.77
2018-05-11T14:34:58.270Z,4.70
2018-05-11T14:37:25.658Z,5.70
2018-05-11T14:39:52.436Z,4.17
2018-05-11T14:42:19.082Z,4.93
2018-05-11T14:44:45.870Z,4.93
2018-05-11T14:47:12.570Z,4.90
2018-05-11T14:49:39.307Z,4.40
2018-05-11T14:52:06.031Z,4.93
2018-05-11T14:54:32.681Z,4.97
2018-05-11T14:56:59.303Z,5.17
2018-05-11T14:59:25.969Z,4.30
2018-05-11T15:01:52.600Z,3.73
2018-05-11T15:04:19.322Z,4.00
2018-05-11T15:06:48.475Z,3.70
2018-05-11T15:09:15.081Z,4.13
2018-05-11T15:11:41.878Z,3.77
2018-05-11T15:14:08.468Z,3.80
2018-05-11T15:16:35.849Z,3.23
2018-05-11T15:19:02.468Z,3.60
2018-05-11T15:21:29.816Z,3.47
